createdAt,value
2022-09-03T00:16:32.788Z,0.00
2022-09-03T00:17:32.711Z,0.00
2022-09-03T00:18:32.541Z,0.00
2022-09-03T00:19:33.886Z,0.00
2022-09-03T00:20:32.795Z,0.00
2022-09-03T00:25:32.724Z,0.00
2022-09-03T00:26:32.749Z,0.00
2022-09-03T00:27:32.779Z,0.00
2022-09-03T00:28:32.806Z,0.00
2022-09-03T00:29:32.835Z,0.00
2022-09-03T00:30:32.874Z,0.00
2022-09-03T00:31:33.061Z,0.00
2022-09-03T00:32:32.918Z,0.00
2022-09-03T00:33:32.948Z,0.00
2022-09-03T00:34:32.973Z,0.00
2022-09-03T00:35:33.004Z,0.00
2022-09-03T00:45:33.286Z,0.00
2022-09-03T00:46:33.557Z,0.00
2022-09-03T00:47:33.342Z,0.00
2022-09-03T00:48:33.567Z,0.00
2022-09-03T00:50:35.567Z,0.00
2022-09-03T01:04:33.817Z,0.00
2022-09-03T01:05:33.844Z,0.00
2022-09-03T01:06:33.871Z,0.00
2022-09-03T01:07:33.899Z,0.00
2022-09-03T01:08:33.926Z,0.00
2022-09-03T01:09:34.170Z,0.00
2022-09-03T01:10:33.998Z,0.00
2022-09-03T01:16:34.151Z,0.00
2022-09-03T01:17:34.177Z,0.00
2022-09-03T01:18:34.206Z,0.00
2022-09-03T01:19:34.233Z,0.00
2022-09-03T01:20:34.262Z,0.00
2022-09-03T01:21:34.288Z,0.00
2022-09-03T01:22:34.320Z,0.00
2022-09-03T01:23:34.345Z,0.00
2022-09-03T01:24:34.576Z,0.00
2022-09-03T01:25:34.401Z,0.00
2022-09-03T01:26:34.631Z,0.00
2022-09-03T01:27:34.457Z,0.00
2022-09-03T01:28:34.487Z,0.00
2022-09-03T01:29:34.712Z,0.00
2022-09-03T01:30:34.542Z,0.00
2022-09-03T01:31:34.569Z,0.00
2022-09-03T01:32:34.598Z,0.00
2022-09-03T01:33:34.622Z,0.00
2022-09-03T01:34:34.653Z,0.00
2022-09-03T01:35:34.679Z,0.00
2022-09-03T01:36:34.711Z,0.00
2022-09-03T01:37:34.735Z,0.00
2022-09-03T01:38:34.765Z,0.00
2022-09-03T01:39:34.857Z,0.00
2022-09-03T01:40:34.818Z,0.00
2022-09-03T01:41:35.061Z,0.00
2022-09-03T01:42:36.506Z,0.00
2022-09-03T01:48:35.042Z,0.00
2022-09-03T01:49:35.073Z,0.00
2022-09-03T01:50:35.095Z,0.00
2022-09-03T01:51:38.564Z,0.00
2022-09-03T01:52:35.364Z,0.00
2022-09-03T01:55:35.229Z,0.00
2022-09-03T01:56:35.262Z,0.00
2022-09-03T01:57:37.117Z,0.00
2022-09-03T01:58:36.123Z,0.00
2022-09-03T02:00:27.914Z,0.00
2022-09-03T02:01:28.901Z,0.00
2022-09-03T02:02:28.020Z,0.00
2022-09-03T02:03:27.996Z,0.00
2022-09-03T02:04:28.023Z,0.00
2022-09-03T02:05:28.051Z,0.00
2022-09-03T02:06:28.073Z,0.00
2022-09-03T02:07:28.106Z,0.00
2022-09-03T02:08:28.131Z,0.00
2022-09-03T02:09:32.707Z,0.00
2022-09-03T02:10:28.191Z,0.00
2022-09-03T02:11:28.216Z,0.00
2022-09-03T02:12:28.242Z,0.00
2022-09-03T02:13:28.272Z,0.00
2022-09-03T02:14:28.299Z,0.00
2022-09-03T02:15:28.364Z,0.00
2022-09-03T02:16:28.350Z,0.00
2022-09-03T02:17:28.380Z,0.00
2022-09-03T02:18:28.408Z,0.00
2022-09-03T02:19:28.639Z,0.00
2022-09-03T02:20:28.666Z,0.00
2022-09-03T02:21:28.493Z,0.00
2022-09-03T02:22:28.519Z,0.00
2022-09-03T02:23:28.692Z,0.00
2022-09-03T02:24:28.574Z,0.00
2022-09-03T02:25:28.603Z,0.00
2022-09-03T02:26:28.627Z,0.00
2022-09-03T02:27:31.280Z,0.00
2022-09-03T02:28:28.928Z,0.00
2022-09-03T02:29:28.912Z,0.00
2022-09-03T02:32:29.614Z,0.00
2022-09-03T02:34:28.863Z,0.00
2022-09-03T02:36:28.901Z,0.00
2022-09-03T02:37:28.932Z,0.00
2022-09-03T02:38:28.957Z,0.00
2022-09-03T02:39:29.281Z,0.00
2022-09-03T02:40:29.214Z,0.00
2022-09-03T02:41:29.042Z,0.00
2022-09-03T02:42:29.217Z,0.00
2022-09-03T02:43:29.097Z,0.00
2022-09-03T02:44:29.123Z,0.00
2022-09-03T02:45:29.153Z,0.00
2022-09-03T02:46:29.271Z,0.00
2022-09-03T02:47:29.205Z,0.00
2022-09-03T02:48:30.149Z,0.00
2022-09-03T02:49:29.276Z,0.00
2022-09-03T02:50:29.706Z,0.00
2022-09-03T02:52:29.341Z,0.00
2022-09-03T02:53:29.367Z,0.00
2022-09-03T02:54:29.814Z,0.00
2022-09-03T02:55:29.637Z,0.00
2022-09-03T02:56:29.775Z,0.00
2022-09-03T03:01:29.656Z,0.00
2022-09-03T03:02:29.648Z,0.00
2022-09-03T03:03:29.644Z,0.00
2022-09-03T03:04:29.670Z,0.00
2022-09-03T03:05:29.697Z,0.00
2022-09-03T03:06:29.726Z,0.00
2022-09-03T03:11:38.948Z,0.00
2022-09-03T03:12:38.977Z,0.00
2022-09-03T03:13:39.002Z,0.00
2022-09-03T03:14:39.031Z,0.00
2022-09-03T03:15:39.058Z,0.00
2022-09-03T03:16:39.147Z,0.00
2022-09-03T03:17:39.112Z,0.00
2022-09-03T03:18:39.140Z,0.00
2022-09-03T03:19:39.165Z,0.00
2022-09-03T03:20:39.195Z,0.00
2022-09-03T03:21:41.844Z,0.00
2022-09-03T03:22:39.248Z,0.00
2022-09-03T03:23:39.276Z,0.00
2022-09-03T03:24:39.302Z,0.00
2022-09-03T03:25:39.328Z,0.00
2022-09-03T03:26:39.356Z,0.00
2022-09-03T03:27:39.384Z,0.00
2022-09-03T03:28:39.412Z,0.00
2022-09-03T03:29:39.439Z,0.00
2022-09-03T03:30:39.518Z,0.00
2022-09-03T03:31:39.495Z,0.00
2022-09-03T03:32:39.523Z,0.00
2022-09-03T03:33:39.547Z,0.00
2022-09-03T03:34:39.577Z,0.00
2022-09-03T03:35:39.608Z,0.00
2022-09-03T03:36:39.640Z,0.00
2022-09-03T03:37:39.677Z,0.00
2022-09-03T03:38:39.708Z,0.00
2022-09-03T03:39:39.752Z,0.00
2022-09-03T03:40:39.744Z,0.00
2022-09-03T03:41:39.767Z,0.00
2022-09-03T03:42:39.794Z,0.00
2022-09-03T03:43:39.821Z,0.00
2022-09-03T03:44:39.851Z,0.00
2022-09-03T03:45:39.907Z,0.00
2022-09-03T03:46:39.908Z,0.00
2022-09-03T03:47:39.931Z,0.00
2022-09-03T03:48:39.957Z,0.00
2022-09-03T03:49:39.983Z,0.00
2022-09-03T03:50:40.010Z,0.00
2022-09-03T03:51:40.036Z,0.00
2022-09-03T03:52:40.069Z,0.00
2022-09-03T03:53:40.090Z,0.00
2022-09-03T03:54:40.120Z,0.00
2022-09-03T03:55:40.146Z,0.00
2022-09-03T03:56:40.174Z,0.00
2022-09-03T03:57:40.206Z,0.00
2022-09-03T03:58:40.231Z,0.00
2022-09-03T03:59:40.254Z,0.00
2022-09-03T04:00:40.283Z,0.00
2022-09-03T04:01:40.433Z,0.00
2022-09-03T04:02:40.445Z,0.00
2022-09-03T04:03:40.364Z,0.00
2022-09-03T04:04:43.015Z,0.00
2022-09-03T04:05:43.821Z,0.00
2022-09-03T04:06:40.447Z,0.00
2022-09-03T04:07:40.473Z,0.00
2022-09-03T04:08:40.500Z,0.00
2022-09-03T04:09:40.526Z,0.00
2022-09-03T04:10:40.562Z,0.00
2022-09-03T04:11:40.580Z,4.00
2022-09-03T04:12:40.622Z,4.00
2022-09-03T04:13:40.634Z,0.00
2022-09-03T04:14:40.663Z,4.00
2022-09-03T04:15:40.690Z,4.00
2022-09-03T04:16:40.856Z,4.00
2022-09-03T04:19:41.018Z,8.00
2022-09-03T04:20:41.634Z,8.00
2022-09-03T04:22:41.389Z,12.00
2022-09-03T04:28:41.771Z,24.00
2022-09-03T04:30:41.324Z,36.00
2022-09-03T04:31:41.345Z,36.00
2022-09-03T04:33:41.198Z,52.00
2022-09-03T04:34:41.629Z,56.00
2022-09-03T04:35:41.250Z,68.00
2022-09-03T04:37:41.291Z,84.00
2022-09-03T05:23:45.200Z,2616.00
2022-09-03T05:53:34.275Z,9020.00
2022-09-03T05:54:33.998Z,16800.00
2022-09-03T05:55:34.024Z,16512.00
2022-09-03T05:56:34.969Z,20320.00
2022-09-03T05:57:34.082Z,27456.00
2022-09-03T05:58:34.318Z,15936.00
2022-09-03T06:00:34.168Z,9976.00
2022-09-03T06:01:34.599Z,9192.00
2022-09-03T06:02:34.893Z,7780.00
2022-09-03T06:04:34.279Z,6076.00
2022-09-03T06:12:37.725Z,5300.00
2022-09-03T06:13:34.744Z,5044.00
2022-09-03T06:17:34.847Z,4472.00
2022-09-03T06:18:34.680Z,4412.00
2022-09-03T06:19:34.714Z,4412.00
2022-09-03T06:21:34.976Z,4548.00
2022-09-03T06:22:34.784Z,4632.00
2022-09-03T06:23:34.825Z,4712.00
2022-09-03T06:25:34.884Z,4712.00
2022-09-03T06:27:34.927Z,4552.00
2022-09-03T06:28:34.958Z,4500.00
2022-09-03T06:30:35.028Z,4432.00
2022-09-03T06:34:06.157Z,4224.00
2022-09-03T06:35:06.182Z,4124.00
2022-09-03T06:36:08.810Z,4032.00
2022-09-03T06:37:06.035Z,3980.00
2022-09-03T06:38:06.262Z,3956.00
2022-09-03T06:39:06.499Z,3980.00
2022-09-03T06:41:06.144Z,4160.00
2022-09-03T06:43:06.613Z,4416.00
2022-09-03T06:44:06.443Z,4628.00
2022-09-03T06:45:08.078Z,4952.00
2022-09-03T06:47:06.321Z,5912.00
2022-09-03T06:59:06.673Z,9272.00
2022-09-03T07:00:06.695Z,9600.00
2022-09-03T07:01:07.600Z,10004.00
2022-09-03T07:02:06.859Z,10400.00
2022-09-03T07:03:06.787Z,10924.00
2022-09-03T07:04:07.527Z,11508.00
2022-09-03T07:06:06.878Z,12736.00
2022-09-03T07:07:07.097Z,13208.00
2022-09-03T07:08:06.933Z,13172.00
2022-09-03T07:09:07.478Z,13508.00
2022-09-03T07:10:07.704Z,13724.00
2022-09-03T07:11:07.026Z,14120.00
2022-09-03T07:12:07.766Z,14856.00
2022-09-03T07:15:07.128Z,17920.00
2022-09-03T07:16:07.572Z,17440.00
2022-09-03T07:19:07.757Z,17536.00
2022-09-03T07:26:07.679Z,14200.00
2022-09-03T07:29:07.565Z,16132.00
2022-09-03T07:30:07.599Z,16444.00
2022-09-03T07:31:07.621Z,16532.00
2022-09-03T07:32:07.692Z,17600.00
2022-09-03T07:33:07.691Z,17152.00
2022-09-03T07:34:10.175Z,16048.00
2022-09-03T07:36:07.780Z,15640.00
2022-09-03T07:37:07.812Z,15948.00
2022-09-03T07:38:08.146Z,15056.00
2022-09-03T07:39:07.872Z,13652.00
2022-09-03T07:40:07.985Z,13588.00
2022-09-03T07:41:07.934Z,13736.00
2022-09-03T07:42:07.950Z,12840.00
2022-09-03T07:44:09.138Z,12436.00
2022-09-03T07:45:08.054Z,11968.00
2022-09-03T07:47:08.117Z,11768.00
2022-09-03T07:48:08.134Z,12468.00
2022-09-03T07:49:08.167Z,13324.00
2022-09-03T07:50:08.206Z,13756.00
2022-09-03T07:51:08.233Z,14404.00
2022-09-03T07:53:08.300Z,16960.00
2022-09-03T07:54:08.636Z,17056.00
2022-09-03T07:55:08.363Z,17120.00
2022-09-03T07:56:08.594Z,17952.00
2022-09-03T07:57:08.422Z,19488.00
2022-09-03T07:58:08.451Z,19840.00
2022-09-03T07:59:08.476Z,18624.00
2022-09-03T08:01:46.185Z,17760.00
2022-09-03T08:02:46.614Z,17696.00
2022-09-03T08:03:47.178Z,17152.00
2022-09-03T08:04:46.286Z,17280.00
2022-09-03T08:05:46.588Z,17376.00
2022-09-03T08:06:46.551Z,18432.00
2022-09-03T08:07:46.378Z,19008.00
2022-09-03T08:08:46.418Z,18176.00
2022-09-03T08:10:46.477Z,15944.00
2022-09-03T08:11:46.510Z,14772.00
2022-09-03T08:12:47.252Z,14360.00
2022-09-03T09:28:52.238Z,4984.00
2022-09-03T09:29:52.396Z,4984.00
2022-09-03T09:30:52.444Z,4996.00
2022-09-03T09:31:52.325Z,5048.00
2022-09-03T09:32:52.363Z,5144.00
2022-09-03T09:33:52.384Z,5256.00
2022-09-03T09:34:52.810Z,5396.00
2022-09-03T09:35:52.442Z,5580.00
2022-09-03T09:36:52.471Z,5772.00
2022-09-03T09:37:52.500Z,5916.00
2022-09-03T09:38:52.847Z,6028.00
2022-09-03T09:39:52.918Z,6116.00
2022-09-03T09:40:52.588Z,6220.00
2022-09-03T09:41:52.617Z,6320.00
2022-09-03T09:42:52.644Z,6432.00
2022-09-03T09:43:52.676Z,6560.00
2022-09-03T09:44:52.705Z,6760.00
2022-09-03T09:45:52.748Z,7012.00
2022-09-03T09:46:54.950Z,7236.00
2022-09-03T09:47:53.113Z,7452.00
2022-09-03T09:48:53.035Z,7640.00
2022-09-03T09:49:52.851Z,7844.00
2022-09-03T09:50:52.889Z,8052.00
2022-09-03T09:51:52.923Z,8300.00
2022-09-03T09:52:57.295Z,8584.00
2022-09-03T09:53:52.968Z,8848.00
2022-09-03T09:54:53.007Z,9080.00
2022-09-03T09:55:53.046Z,9304.00
2022-09-03T09:56:53.069Z,9584.00
2022-09-03T09:57:53.103Z,9768.00
2022-09-03T09:58:53.126Z,9920.00
2022-09-03T10:00:53.190Z,10396.00
2022-09-03T10:01:53.293Z,10504.00
2022-09-03T10:02:53.306Z,10636.00
2022-09-03T10:03:53.263Z,10768.00
2022-09-03T10:04:53.304Z,10864.00
2022-09-03T10:05:53.334Z,10988.00
2022-09-03T10:07:53.393Z,11268.00
2022-09-03T10:08:53.424Z,11508.00
2022-09-03T10:10:53.758Z,13428.00
2022-09-03T10:11:53.918Z,13604.00
2022-09-03T10:12:53.548Z,13408.00
2022-09-03T10:13:53.574Z,13332.00
2022-09-03T10:14:53.607Z,13400.00
2022-09-03T10:17:53.895Z,14136.00
2022-09-03T10:18:53.722Z,15160.00
2022-09-03T10:20:54.091Z,15616.00
2022-09-03T10:21:53.812Z,14056.00
2022-09-03T10:22:57.079Z,14188.00
2022-09-03T10:23:53.872Z,16192.00
2022-09-03T10:24:53.903Z,14516.00
2022-09-03T10:25:53.937Z,14096.00
2022-09-03T10:26:53.965Z,14096.00
2022-09-03T10:27:54.000Z,14196.00
2022-09-03T10:28:56.777Z,14232.00
2022-09-03T10:29:54.057Z,14244.00
2022-09-03T10:30:54.203Z,14192.00
2022-09-03T10:31:54.125Z,14112.00
2022-09-03T10:32:54.148Z,14072.00
2022-09-03T10:34:54.211Z,13992.00
2022-09-03T10:35:54.238Z,14156.00
2022-09-03T10:36:54.578Z,14436.00
2022-09-03T10:37:54.705Z,14272.00
2022-09-03T10:38:54.335Z,14160.00
2022-09-03T10:39:54.383Z,14612.00
2022-09-03T10:40:54.586Z,14772.00
2022-09-03T10:41:54.421Z,14480.00
2022-09-03T10:42:54.445Z,14252.00
2022-09-03T10:43:54.489Z,14016.00
2022-09-03T10:44:54.725Z,13960.00
2022-09-03T10:45:54.610Z,14704.00
2022-09-03T10:46:54.583Z,14436.00
2022-09-03T10:47:54.599Z,14252.00
2022-09-03T10:48:54.646Z,14208.00
2022-09-03T10:49:54.675Z,13940.00
2022-09-03T10:51:55.046Z,12992.00
2022-09-03T10:52:55.077Z,13188.00
2022-09-03T10:53:54.804Z,13932.00
2022-09-03T10:54:54.829Z,12148.00
2022-09-03T10:55:54.866Z,11716.00
2022-09-03T10:56:54.896Z,11644.00
2022-09-03T10:57:54.915Z,11340.00
2022-09-03T10:58:54.956Z,11232.00
2022-09-03T10:59:55.194Z,11144.00
2022-09-03T11:00:55.009Z,10748.00
2022-09-03T11:01:55.134Z,11748.00
2022-09-03T11:02:55.184Z,12024.00
2022-09-03T11:03:55.107Z,11916.00
2022-09-03T11:04:55.147Z,11296.00
2022-09-03T11:05:55.174Z,10712.00
2022-09-03T11:06:55.199Z,11780.00
2022-09-03T11:07:55.232Z,11736.00
2022-09-03T11:08:55.871Z,12072.00
2022-09-03T11:09:56.710Z,11680.00
2022-09-03T11:10:55.337Z,13144.00
2022-09-03T11:11:55.576Z,13360.00
2022-09-03T11:12:56.411Z,12808.00
2022-09-03T11:13:55.889Z,11568.00
2022-09-03T11:14:55.759Z,11152.00
2022-09-03T11:15:56.732Z,11256.00
2022-09-03T11:16:55.531Z,11528.00
2022-09-03T11:17:56.225Z,11712.00
2022-09-03T11:18:55.583Z,11620.00
2022-09-03T11:19:55.618Z,11104.00
2022-09-03T11:20:55.700Z,10516.00
2022-09-03T11:21:55.682Z,10032.00
2022-09-03T11:22:55.715Z,10208.00
2022-09-03T11:23:55.746Z,9780.00
2022-09-03T11:24:55.778Z,9456.00
2022-09-03T11:25:55.809Z,9268.00
2022-09-03T11:26:55.853Z,8940.00
2022-09-03T11:27:56.730Z,8416.00
2022-09-03T11:28:55.917Z,8064.00
2022-09-03T11:29:55.951Z,8148.00
2022-09-03T11:30:56.065Z,7744.00
2022-09-03T11:32:56.247Z,7180.00
2022-09-03T11:34:56.096Z,7020.00
2022-09-03T11:35:56.345Z,6956.00
2022-09-03T11:37:56.205Z,6496.00
2022-09-03T11:38:57.250Z,6240.00
2022-09-03T11:39:56.619Z,6032.00
2022-09-03T11:40:56.307Z,6020.00
2022-09-03T11:42:56.567Z,6136.00
2022-09-03T11:43:58.269Z,6164.00
2022-09-03T11:44:56.831Z,6092.00
2022-09-03T11:47:56.525Z,5800.00
2022-09-03T11:48:56.544Z,5748.00
2022-09-03T11:49:56.589Z,5756.00
2022-09-03T11:50:56.623Z,5656.00
2022-09-03T11:51:56.653Z,5388.00
2022-09-03T11:52:56.681Z,5276.00
2022-09-03T11:53:56.703Z,5024.00
2022-09-03T11:54:56.744Z,4900.00
2022-09-03T11:55:57.186Z,4608.00
2022-09-03T11:56:56.811Z,4228.00
2022-09-03T11:57:57.045Z,3992.00
2022-09-03T11:59:57.308Z,3776.00
2022-09-03T12:00:56.942Z,3772.00
2022-09-03T12:01:57.171Z,3676.00
2022-09-03T12:02:59.190Z,3560.00
2022-09-03T12:03:57.032Z,3504.00
2022-09-03T12:05:57.098Z,3608.00
2022-09-03T12:06:57.128Z,3488.00
2022-09-03T12:07:57.563Z,3968.00
2022-09-03T12:08:57.189Z,4112.00
2022-09-03T12:09:57.221Z,4040.00
2022-09-03T12:10:57.455Z,4180.00
2022-09-03T12:11:57.488Z,4276.00
2022-09-03T12:12:57.517Z,4060.00
2022-09-03T12:13:57.345Z,3864.00
2022-09-03T12:15:57.467Z,3596.00
2022-09-03T12:16:57.439Z,3660.00
2022-09-03T12:17:57.780Z,3676.00
2022-09-03T12:18:57.502Z,4032.00
2022-09-03T12:19:57.521Z,3976.00
2022-09-03T12:21:57.597Z,4148.00
2022-09-03T12:22:57.626Z,4124.00
2022-09-03T12:23:58.048Z,4104.00
2022-09-03T12:24:57.688Z,4104.00
2022-09-03T12:25:57.924Z,4088.00
2022-09-03T12:26:57.737Z,4076.00
2022-09-03T12:29:57.851Z,4068.00
2022-09-03T12:30:57.915Z,4064.00
2022-09-03T12:31:58.110Z,4052.00
2022-09-03T12:32:57.935Z,4032.00
2022-09-03T12:33:57.969Z,4048.00
2022-09-03T12:35:58.900Z,4068.00
2022-09-03T12:36:58.268Z,4072.00
2022-09-03T12:38:08.436Z,4072.00
2022-09-03T12:39:11.497Z,4072.00
2022-09-03T12:40:07.709Z,4080.00
2022-09-03T12:41:58.224Z,4080.00
2022-09-03T12:43:37.217Z,4076.00
2022-09-03T12:46:13.725Z,4056.00
2022-09-03T12:47:58.458Z,4040.00
2022-09-03T12:49:58.471Z,4020.00
2022-09-03T12:50:58.712Z,3992.00
2022-09-03T12:52:58.766Z,3972.00
2022-09-03T12:53:59.210Z,3972.00
2022-09-03T12:54:58.830Z,3972.00
2022-09-03T12:55:59.767Z,3964.00
2022-09-03T12:58:58.955Z,3928.00
2022-09-03T12:59:58.792Z,3928.00
2022-09-03T13:01:59.045Z,3920.00
2022-09-03T13:02:59.085Z,3920.00
2022-09-03T13:03:58.913Z,3896.00
2022-09-03T13:05:59.692Z,3868.00
2022-09-03T13:07:59.241Z,3856.00
2022-09-03T13:11:59.182Z,3512.00
2022-09-03T13:13:11.934Z,3488.00
2022-09-03T13:15:59.289Z,3408.00
2022-09-03T13:17:00.241Z,3228.00
2022-09-03T13:19:59.622Z,3652.00
2022-09-03T13:20:59.852Z,3572.00
2022-09-03T13:21:59.684Z,3736.00
2022-09-03T13:22:59.710Z,3632.00
2022-09-03T13:23:59.546Z,3636.00
2022-09-03T13:26:03.994Z,3652.00
2022-09-03T13:26:59.839Z,3752.00
2022-09-03T13:27:59.671Z,3796.00
2022-09-03T13:29:59.934Z,3872.00
2022-09-03T13:30:59.827Z,3884.00
2022-09-03T13:32:05.358Z,3868.00
2022-09-03T13:33:00.439Z,3844.00
2022-09-03T13:34:00.370Z,3832.00
2022-09-03T13:35:59.922Z,3840.00
2022-09-03T13:36:59.952Z,3832.00
2022-09-03T13:39:00.218Z,3824.00
2022-09-03T13:40:00.408Z,3816.00
2022-09-03T13:41:00.082Z,3804.00
2022-09-03T13:46:00.588Z,3760.00
2022-09-03T13:48:00.503Z,3752.00
2022-09-03T13:49:01.050Z,3756.00
2022-09-03T13:50:00.770Z,3764.00
2022-09-03T13:51:00.602Z,3760.00
2022-09-03T13:52:00.740Z,3768.00
2022-09-03T13:53:00.457Z,3784.00
2022-09-03T13:55:00.728Z,3804.00
2022-09-03T13:56:00.555Z,3804.00
2022-09-03T13:57:00.592Z,3792.00
2022-09-03T13:58:02.066Z,3776.00
2022-09-03T13:59:00.854Z,3788.00
2022-09-03T14:00:01.087Z,3788.00
2022-09-03T14:01:01.161Z,3796.00
2022-09-03T14:02:01.107Z,3820.00
2022-09-03T14:03:01.235Z,3816.00
2022-09-03T14:04:00.810Z,3808.00
2022-09-03T14:06:01.082Z,3816.00
2022-09-03T14:07:01.110Z,3824.00
2022-09-03T14:08:00.942Z,3800.00
2022-09-03T14:10:01.406Z,3796.00
2022-09-03T14:11:01.036Z,3812.00
2022-09-03T14:14:01.127Z,3948.00
2022-09-03T14:16:01.399Z,4124.00
2022-09-03T14:17:01.226Z,4188.00
2022-09-03T14:18:01.260Z,4228.00
2022-09-03T14:19:01.287Z,4256.00
2022-09-03T14:21:01.353Z,4480.00
2022-09-03T14:22:01.397Z,4592.00
2022-09-03T14:23:01.617Z,4156.00
2022-09-03T14:24:01.452Z,4180.00
2022-09-03T14:25:01.482Z,4316.00
2022-09-03T14:30:02.247Z,5000.00
2022-09-03T14:31:01.676Z,5228.00
2022-09-03T14:32:01.816Z,5236.00
2022-09-03T14:33:02.141Z,5028.00
2022-09-03T14:34:02.173Z,5300.00
2022-09-03T14:38:02.099Z,5236.00
2022-09-03T14:39:01.927Z,5076.00
2022-09-03T14:42:02.027Z,5028.00
2022-09-03T14:45:02.125Z,4952.00
2022-09-03T14:46:05.719Z,5120.00
2022-09-03T14:47:02.192Z,5352.00
2022-09-03T14:50:02.585Z,4808.00
2022-09-03T14:52:02.344Z,4700.00
2022-09-03T14:55:03.157Z,4156.00
2022-09-03T14:56:02.473Z,4288.00
2022-09-03T14:57:02.819Z,4356.00
2022-09-03T14:58:03.146Z,4364.00
2022-09-03T14:59:03.689Z,4300.00
2022-09-03T15:00:02.646Z,4740.00
2022-09-03T15:01:02.792Z,4444.00
2022-09-03T15:06:03.403Z,4152.00
2022-09-03T15:07:03.237Z,4228.00
2022-09-03T15:09:02.893Z,4232.00
2022-09-03T15:11:03.667Z,3904.00
2022-09-03T15:13:03.531Z,3644.00
2022-09-03T15:15:03.087Z,3860.00
2022-09-03T15:16:03.599Z,3660.00
2022-09-03T15:17:03.962Z,3580.00
2022-09-03T15:23:03.752Z,3924.00
2022-09-03T15:26:03.639Z,3900.00
2022-09-03T15:29:04.048Z,4000.00
2022-09-03T15:32:03.844Z,4240.00
2022-09-03T15:33:05.280Z,4316.00
2022-09-03T15:34:04.608Z,4444.00
2022-09-03T15:35:04.240Z,4456.00
2022-09-03T15:36:03.756Z,4428.00
2022-09-03T15:39:05.470Z,4168.00
2022-09-03T15:42:04.153Z,3720.00
2022-09-03T15:48:04.354Z,3616.00
2022-09-03T15:53:05.317Z,3408.00
2022-09-03T15:55:04.566Z,3188.00
2022-09-03T15:56:04.806Z,3020.00
2022-09-03T15:59:04.695Z,3032.00
2022-09-03T16:00:04.731Z,3240.00
2022-09-03T16:02:05.196Z,3488.00
2022-09-03T16:05:04.888Z,2988.00
2022-09-03T16:12:05.115Z,1700.00
2022-09-03T16:13:04.946Z,1552.00
2022-09-03T16:14:04.971Z,1376.00
2022-09-03T16:15:05.008Z,1232.00
2022-09-03T16:16:05.325Z,1156.00
2022-09-03T16:17:05.282Z,1092.00
2022-09-03T16:18:05.105Z,1036.00
2022-09-03T16:23:05.774Z,868.00
2022-09-03T16:25:05.326Z,816.00
2022-09-03T16:26:05.362Z,804.00
2022-09-03T16:27:05.591Z,804.00
2022-09-03T16:28:11.519Z,812.00
2022-09-03T16:30:05.994Z,880.00
2022-09-03T16:32:06.158Z,1032.00
2022-09-03T16:33:05.888Z,1100.00
2022-09-03T16:35:05.633Z,1176.00
2022-09-03T16:36:05.665Z,1312.00
2022-09-03T16:37:05.697Z,1360.00
2022-09-03T16:38:05.728Z,1428.00
2022-09-03T16:39:05.759Z,1552.00
2022-09-03T16:40:05.842Z,1652.00
2022-09-03T16:41:05.823Z,1716.00
2022-09-03T16:42:05.853Z,1644.00
2022-09-03T16:43:23.507Z,1648.00
2022-09-03T16:49:06.088Z,2052.00
2022-09-03T16:50:06.323Z,2096.00
2022-09-03T16:51:06.845Z,2168.00
2022-09-03T16:52:06.790Z,2276.00
2022-09-03T16:53:08.084Z,2348.00
2022-09-03T16:54:06.534Z,2384.00
2022-09-03T17:02:23.777Z,2268.00
2022-09-03T17:03:06.681Z,2272.00
2022-09-03T17:04:06.564Z,2312.00
2022-09-03T17:05:07.304Z,2272.00
2022-09-03T17:08:06.999Z,2116.00
2022-09-03T17:09:07.835Z,2084.00
2022-09-03T17:13:08.162Z,1952.00
2022-09-03T17:14:07.384Z,1944.00
2022-09-03T17:15:07.509Z,1904.00
2022-09-03T17:17:06.972Z,1788.00
2022-09-03T17:19:07.032Z,1684.00
2022-09-03T17:20:07.268Z,1620.00
2022-09-03T17:26:07.249Z,1296.00
2022-09-03T17:27:07.265Z,1264.00
2022-09-03T17:28:07.316Z,1252.00
2022-09-03T17:29:07.851Z,1244.00
2022-09-03T17:30:07.370Z,1224.00
2022-09-03T17:31:07.417Z,1200.00
2022-09-03T17:32:07.437Z,1168.00
2022-09-03T17:33:07.666Z,1132.00
2022-09-03T17:36:08.255Z,1032.00
2022-09-03T17:37:07.589Z,1008.00
2022-09-03T17:38:07.621Z,992.00
2022-09-03T17:39:07.955Z,964.00
2022-09-03T17:40:07.972Z,932.00
2022-09-03T17:41:08.333Z,896.00
2022-09-03T17:44:07.790Z,820.00
2022-09-03T17:45:07.818Z,792.00
2022-09-03T17:46:07.945Z,744.00
2022-09-03T17:47:07.877Z,724.00
2022-09-03T17:48:07.908Z,740.00
2022-09-03T17:50:07.965Z,736.00
2022-09-03T17:51:07.999Z,708.00
2022-09-03T17:52:08.026Z,672.00
2022-09-03T17:53:08.059Z,632.00
2022-09-03T17:54:08.095Z,596.00
2022-09-03T17:55:08.132Z,560.00
2022-09-03T17:56:08.147Z,524.00
2022-09-03T17:57:08.186Z,488.00
2022-09-03T17:58:08.221Z,452.00
2022-09-03T17:59:08.238Z,416.00
2022-09-03T18:00:08.269Z,388.00
2022-09-03T18:01:08.299Z,356.00
2022-09-03T18:02:08.349Z,316.00
2022-09-03T18:03:08.357Z,284.00
2022-09-03T18:04:08.403Z,256.00
2022-09-03T18:08:14.398Z,180.00
2022-09-03T18:09:14.431Z,164.00
2022-09-03T18:10:14.454Z,152.00
2022-09-03T18:11:14.689Z,136.00
2022-09-03T18:12:14.716Z,124.00
2022-09-03T18:13:14.750Z,108.00
2022-09-03T18:14:15.816Z,100.00
2022-09-03T18:18:17.909Z,64.00
2022-09-03T18:19:14.708Z,60.00
2022-09-03T18:20:14.738Z,52.00
2022-09-03T18:21:24.317Z,48.00
2022-09-03T18:22:14.808Z,40.00
2022-09-03T18:23:14.861Z,36.00
2022-09-03T18:25:15.208Z,28.00
2022-09-03T18:29:15.527Z,16.00
2022-09-03T18:30:15.249Z,12.00
2022-09-03T18:35:15.201Z,4.00
2022-09-03T18:39:15.304Z,4.00
2022-09-03T18:40:15.330Z,0.00
2022-09-03T18:41:15.371Z,0.00
2022-09-03T18:42:15.401Z,0.00
2022-09-03T18:43:15.428Z,0.00
2022-09-03T18:44:15.462Z,0.00
2022-09-03T18:45:21.858Z,0.00
2022-09-03T18:47:00.340Z,0.00
2022-09-03T18:48:20.232Z,0.00
2022-09-03T18:49:15.917Z,0.00
2022-09-03T18:50:16.035Z,0.00
2022-09-03T18:53:17.429Z,0.00
2022-09-03T18:56:16.423Z,0.00
2022-09-03T18:58:16.670Z,0.00
2022-09-03T18:59:15.905Z,0.00
2022-09-03T19:00:16.127Z,0.00
2022-09-03T19:01:15.992Z,0.00
2022-09-03T19:02:16.291Z,0.00
2022-09-03T19:04:16.255Z,0.00
2022-09-03T19:05:16.074Z,0.00
2022-09-03T19:07:16.119Z,0.00
2022-09-03T19:08:16.159Z,0.00
2022-09-03T19:10:16.831Z,0.00
2022-09-03T19:11:16.253Z,0.00
2022-09-03T19:12:16.993Z,0.00
2022-09-03T19:13:16.356Z,0.00
2022-09-03T19:14:16.337Z,0.00
2022-09-03T19:15:16.365Z,0.00
2022-09-03T19:29:17.590Z,0.00
2022-09-03T19:52:18.255Z,0.00
2022-09-03T19:54:17.710Z,0.00
2022-09-03T20:12:19.535Z,0.00
2022-09-03T20:30:18.537Z,0.00
2022-09-03T20:31:18.585Z,0.00
2022-09-03T20:32:18.605Z,0.00
2022-09-03T20:33:19.110Z,0.00
2022-09-03T20:34:18.665Z,0.00
2022-09-03T20:35:18.896Z,0.00
2022-09-03T20:36:18.726Z,0.00
2022-09-03T20:37:18.753Z,0.00
2022-09-03T20:38:18.776Z,0.00
2022-09-03T20:39:18.878Z,0.00
2022-09-03T20:40:19.039Z,0.00
2022-09-03T20:41:19.070Z,0.00
2022-09-03T20:43:20.040Z,0.00
2022-09-03T20:44:19.360Z,0.00
2022-09-03T20:46:20.063Z,0.00
2022-09-03T20:47:19.043Z,0.00
2022-09-03T20:49:19.406Z,0.00
2022-09-03T20:50:20.048Z,0.00
2022-09-03T20:51:19.558Z,0.00
2022-09-03T20:54:19.441Z,0.00
2022-09-03T20:57:19.530Z,0.00
2022-09-03T21:01:20.087Z,0.00
2022-09-03T21:04:19.530Z,0.00
2022-09-03T21:05:19.558Z,0.00
2022-09-03T21:06:20.327Z,0.00
2022-09-03T21:07:19.830Z,0.00
2022-09-03T21:10:19.911Z,0.00
2022-09-03T21:11:19.733Z,0.00
2022-09-03T21:12:19.968Z,0.00
2022-09-03T21:14:20.020Z,0.00
2022-09-03T21:16:21.858Z,0.00
2022-09-03T21:17:20.045Z,0.00
2022-09-03T21:18:19.950Z,0.00
2022-09-03T21:20:20.804Z,0.00
2022-09-03T21:22:20.049Z,0.00
2022-09-03T21:24:20.096Z,0.00
2022-09-03T21:25:20.122Z,0.00
2022-09-03T21:26:20.153Z,0.00
2022-09-03T21:28:32.798Z,0.00
2022-09-03T21:29:32.830Z,0.00
2022-09-03T21:30:32.894Z,0.00
2022-09-03T21:31:32.886Z,0.00
2022-09-03T21:32:32.914Z,0.00
2022-09-03T21:33:32.958Z,0.00
2022-09-03T21:34:32.971Z,0.00
2022-09-03T21:35:33.000Z,0.00
2022-09-03T21:36:33.029Z,0.00
2022-09-03T21:37:33.059Z,0.00
2022-09-03T21:38:33.085Z,0.00